createdAt,value
2022-09-26T00:01:33.382Z,5.43
2022-09-26T00:04:06.592Z,5.42
2022-09-26T00:06:34.178Z,5.31
2022-09-26T00:09:01.683Z,5.16
2022-09-26T00:11:31.916Z,5.20
2022-09-26T00:14:06.173Z,5.34
2022-09-26T00:16:34.041Z,5.36
2022-09-26T00:19:02.016Z,5.12
2022-09-26T00:21:30.589Z,5.17
2022-09-26T00:24:00.610Z,5.05
2022-09-26T00:26:30.681Z,5.06
2022-09-26T00:28:59.073Z,5.09
2022-09-26T00:31:32.321Z,5.05
2022-09-26T00:33:59.960Z,5.00
2022-09-26T00:36:37.656Z,5.03
2022-09-26T00:39:11.386Z,4.96
2022-09-26T00:44:55.350Z,4.76
2022-09-26T00:47:40.876Z,4.76
2022-09-26T00:50:14.725Z,4.83
2022-09-26T00:52:49.655Z,4.78
2022-09-26T00:55:21.834Z,4.71
2022-09-26T00:58:00.855Z,4.72
2022-09-26T01:00:28.594Z,4.57
2022-09-26T01:02:57.027Z,4.70
2022-09-26T01:05:24.831Z,4.79
2022-09-26T01:07:54.215Z,4.80
2022-09-26T01:10:22.208Z,4.69
2022-09-26T01:12:49.698Z,4.60
2022-09-26T01:15:18.356Z,4.51
2022-09-26T01:17:49.743Z,4.47
2022-09-26T01:20:29.503Z,4.49
2022-09-26T01:23:06.441Z,4.68
2022-09-26T01:25:52.129Z,4.63
2022-09-26T01:28:58.893Z,4.59
2022-09-26T01:32:10.848Z,4.45
2022-09-26T01:34:59.382Z,4.61
2022-09-26T01:38:08.794Z,4.53
2022-09-26T01:41:04.832Z,4.63
2022-09-26T01:43:54.375Z,4.56
2022-09-26T01:46:34.537Z,4.56
2022-09-26T01:49:28.027Z,4.56
2022-09-26T01:52:08.982Z,4.51
2022-09-26T01:54:48.927Z,4.49
2022-09-26T01:57:28.961Z,4.51
2022-09-26T02:00:04.496Z,4.46
2022-09-26T02:02:47.932Z,4.44
2022-09-26T02:05:47.748Z,4.35
2022-09-26T02:08:26.878Z,4.41
2022-09-26T02:11:07.171Z,4.51
2022-09-26T02:13:52.225Z,4.40
2022-09-26T02:16:40.058Z,4.46
2022-09-26T02:19:29.518Z,4.36
2022-09-26T02:22:01.783Z,4.35
2022-09-26T02:24:29.575Z,4.34
2022-09-26T02:26:57.469Z,4.27
2022-09-26T02:29:24.916Z,4.28
2022-09-26T02:32:06.224Z,4.42
2022-09-26T02:34:33.929Z,4.40
2022-09-26T02:37:02.371Z,4.51
2022-09-26T02:39:34.499Z,4.46
2022-09-26T02:42:31.680Z,4.54
2022-09-26T02:45:29.802Z,4.54
2022-09-26T02:48:25.732Z,4.51
2022-09-26T02:50:53.100Z,4.44
2022-09-26T02:53:32.936Z,4.48
2022-09-26T02:56:14.545Z,4.44
2022-09-26T02:58:54.996Z,4.48
2022-09-26T03:01:53.113Z,4.49
2022-09-26T03:04:42.075Z,4.33
2022-09-26T03:07:15.401Z,4.36
2022-09-26T03:09:44.366Z,4.35
2022-09-26T03:12:14.087Z,4.26
2022-09-26T03:14:43.632Z,4.23
2022-09-26T03:17:11.601Z,4.24
2022-09-26T03:19:47.034Z,4.33
2022-09-26T03:22:16.603Z,4.27
2022-09-26T03:24:46.041Z,4.00
2022-09-26T03:27:16.754Z,3.94
2022-09-26T03:29:46.311Z,3.65
2022-09-26T03:32:19.837Z,3.76
2022-09-26T03:34:47.557Z,3.71
2022-09-26T03:37:16.363Z,3.71
2022-09-26T03:39:45.297Z,3.71
2022-09-26T03:42:24.881Z,3.73
2022-09-26T03:44:54.852Z,3.75
2022-09-26T03:47:57.655Z,3.70
2022-09-26T03:50:25.972Z,3.65
2022-09-26T03:52:53.584Z,3.74
2022-09-26T03:55:21.299Z,3.72
2022-09-26T03:57:48.787Z,3.75
2022-09-26T04:00:25.860Z,3.90
2022-09-26T04:02:53.965Z,3.86
2022-09-26T04:05:33.989Z,3.89
2022-09-26T04:08:05.989Z,3.78
2022-09-26T04:10:43.926Z,3.78
2022-09-26T04:13:16.829Z,3.83
2022-09-26T04:16:01.405Z,3.92
2022-09-26T04:18:30.554Z,3.94
2022-09-26T04:21:10.091Z,3.93
2022-09-26T04:23:41.049Z,4.05
2022-09-26T04:26:20.139Z,3.97
2022-09-26T04:28:52.492Z,4.00
2022-09-26T04:31:21.869Z,4.02
2022-09-26T04:33:57.507Z,4.05
2022-09-26T04:36:25.080Z,4.02
2022-09-26T04:38:52.667Z,4.05
2022-09-26T04:41:22.301Z,4.04
2022-09-26T04:43:50.561Z,4.02
2022-09-26T04:46:24.571Z,4.19
2022-09-26T04:48:57.696Z,4.26
2022-09-26T04:51:27.339Z,4.14
2022-09-26T04:53:55.574Z,4.32
2022-09-26T04:56:27.752Z,4.37
2022-09-26T04:58:57.179Z,4.36
2022-09-26T05:01:27.734Z,4.32
2022-09-26T05:04:04.406Z,4.49
2022-09-26T05:06:34.301Z,4.42
2022-09-26T05:09:04.628Z,4.35
2022-09-26T05:11:58.117Z,4.42
2022-09-26T05:14:25.792Z,4.42
2022-09-26T05:16:53.413Z,4.41
2022-09-26T05:19:21.808Z,4.55
2022-09-26T05:22:08.460Z,4.55
2022-09-26T05:24:54.411Z,4.66
2022-09-26T05:27:22.164Z,4.63
2022-09-26T05:29:49.665Z,4.69
2022-09-26T05:32:20.956Z,4.67
2022-09-26T05:34:51.292Z,4.61
2022-09-26T05:37:21.493Z,4.59
2022-09-26T05:40:09.263Z,4.50
2022-09-26T05:42:42.256Z,4.52
2022-09-26T05:45:10.433Z,4.46
2022-09-26T05:47:38.071Z,4.49
2022-09-26T05:50:10.467Z,4.52
2022-09-26T05:52:39.843Z,4.52
2022-09-26T05:55:12.235Z,4.50
2022-09-26T05:58:01.863Z,4.51
2022-09-26T06:00:51.801Z,4.56
2022-09-26T06:03:20.257Z,4.57
2022-09-26T06:06:13.331Z,4.60
2022-09-26T06:08:42.782Z,4.48
2022-09-26T06:11:31.258Z,4.60
2022-09-26T06:14:03.090Z,4.63
2022-09-26T06:16:33.128Z,4.58
2022-09-26T06:19:02.835Z,4.51
2022-09-26T06:21:30.499Z,4.49
2022-09-26T06:24:04.851Z,4.38
2022-09-26T06:26:32.655Z,4.52
2022-09-26T06:29:02.777Z,4.52
2022-09-26T06:31:34.869Z,4.49
2022-09-26T06:34:13.233Z,4.48
2022-09-26T06:37:13.209Z,4.65
2022-09-26T06:39:40.784Z,4.63
2022-09-26T06:42:09.292Z,4.71
2022-09-26T06:44:50.401Z,4.67
2022-09-26T06:47:23.715Z,4.71
2022-09-26T06:50:01.855Z,4.78
2022-09-26T06:52:36.758Z,4.74
2022-09-26T06:55:07.070Z,4.70
2022-09-26T06:57:41.541Z,4.72
2022-09-26T07:00:11.623Z,4.83
2022-09-26T07:03:16.250Z,4.81
2022-09-26T07:05:50.087Z,4.78
2022-09-26T07:08:17.798Z,4.84
2022-09-26T07:10:45.331Z,5.02
2022-09-26T07:13:19.658Z,5.00
2022-09-26T07:15:47.858Z,4.84
2022-09-26T07:18:41.300Z,4.96
2022-09-26T07:21:38.433Z,5.05
2022-09-26T07:24:14.379Z,5.01
2022-09-26T07:26:42.871Z,5.02
2022-09-26T07:29:10.865Z,5.06
2022-09-26T07:31:38.899Z,5.04
2022-09-26T07:34:08.048Z,5.13
2022-09-26T07:36:39.167Z,5.22
2022-09-26T07:39:09.481Z,5.11
2022-09-26T07:41:38.407Z,5.04
2022-09-26T07:47:12.867Z,5.11
2022-09-26T07:50:00.083Z,5.16
2022-09-26T07:52:49.111Z,5.21
2022-09-26T07:55:28.278Z,5.31
2022-09-26T07:57:59.551Z,5.31
2022-09-26T08:00:47.158Z,5.32
2022-09-26T08:03:27.677Z,5.35
2022-09-26T08:06:00.350Z,5.51
2022-09-26T08:08:30.748Z,5.40
2022-09-26T08:11:04.287Z,5.13
2022-09-26T08:14:10.345Z,5.19
2022-09-26T08:17:14.116Z,5.12
2022-09-26T08:19:42.547Z,5.10
2022-09-26T08:22:10.581Z,5.16
2022-09-26T08:24:45.431Z,5.09
2022-09-26T08:27:33.310Z,5.26
2022-09-26T08:30:01.186Z,5.23
2022-09-26T08:32:30.757Z,5.34
2022-09-26T08:34:58.445Z,5.39
2022-09-26T08:37:34.692Z,5.52
2022-09-26T08:41:10.518Z,5.56
2022-09-26T08:43:54.307Z,5.51
2022-09-26T08:46:48.154Z,5.55
2022-09-26T08:49:39.191Z,5.36
2022-09-26T08:52:21.369Z,5.22
2022-09-26T08:54:51.615Z,5.29
2022-09-26T08:57:24.679Z,5.38
2022-09-26T08:59:54.727Z,5.27
2022-09-26T09:02:42.188Z,5.41
2022-09-26T09:05:31.708Z,5.51
2022-09-26T09:08:03.699Z,5.44
2022-09-26T09:10:52.840Z,5.53
2022-09-26T09:13:35.455Z,5.58
2022-09-26T09:16:51.834Z,5.59
2022-09-26T09:19:53.408Z,5.52
2022-09-26T09:23:06.746Z,5.65
2022-09-26T09:25:55.312Z,5.71
2022-09-26T09:28:37.718Z,5.75
2022-09-26T09:31:16.963Z,5.83
2022-09-26T09:34:04.346Z,5.80
2022-09-26T09:36:56.307Z,5.76
2022-09-26T09:39:51.734Z,5.82
2022-09-26T09:42:29.504Z,5.88
2022-09-26T09:45:06.672Z,5.69
2022-09-26T09:47:39.583Z,5.44
2022-09-26T09:50:26.335Z,5.54
2022-09-26T09:53:11.582Z,5.45
2022-09-26T09:55:58.396Z,5.45
2022-09-26T09:58:39.485Z,5.60
2022-09-26T10:01:17.690Z,5.56
2022-09-26T10:04:07.259Z,5.64
2022-09-26T10:06:45.916Z,5.38
2022-09-26T10:09:38.916Z,5.43
2022-09-26T10:12:41.135Z,5.30
2022-09-26T10:15:58.069Z,5.35
2022-09-26T10:19:07.026Z,5.60
2022-09-26T10:21:42.785Z,5.41
2022-09-26T10:24:45.617Z,5.68
2022-09-26T10:27:24.252Z,5.48
2022-09-26T10:29:59.855Z,5.32
2022-09-26T10:32:29.560Z,5.24
2022-09-26T10:35:25.999Z,5.41
2022-09-26T10:38:06.294Z,5.35
2022-09-26T10:40:46.104Z,5.38
2022-09-26T10:43:33.664Z,5.40
2022-09-26T10:46:23.304Z,5.41
2022-09-26T10:49:14.151Z,5.46
2022-09-26T10:52:30.289Z,5.54
2022-09-26T10:55:00.542Z,5.55
2022-09-26T10:57:40.213Z,5.60
2022-09-26T11:00:08.797Z,5.55
2022-09-26T11:02:38.407Z,5.63
2022-09-26T11:05:25.334Z,5.57
2022-09-26T11:08:16.438Z,5.54
2022-09-26T11:11:16.605Z,5.68
2022-09-26T11:13:56.427Z,5.63
2022-09-26T11:16:24.648Z,5.52
2022-09-26T11:19:10.432Z,5.51
2022-09-26T11:22:08.238Z,5.69
2022-09-26T11:25:06.486Z,5.73
2022-09-26T11:28:08.197Z,5.75
2022-09-26T11:31:06.749Z,5.69
2022-09-26T11:33:45.998Z,5.67
2022-09-26T11:37:03.801Z,5.88
2022-09-26T11:39:41.035Z,5.88
2022-09-26T11:42:29.739Z,5.88
2022-09-26T11:45:00.775Z,5.72
2022-09-26T11:48:25.705Z,5.92
2022-09-26T11:51:33.470Z,5.77
2022-09-26T11:54:20.630Z,5.74
2022-09-26T11:57:22.306Z,5.72
2022-09-26T12:00:03.079Z,5.81
2022-09-26T12:03:01.319Z,5.83
2022-09-26T12:05:50.676Z,5.90
2022-09-26T12:08:52.002Z,5.87
2022-09-26T12:11:38.273Z,5.76
2022-09-26T12:14:29.828Z,5.85
2022-09-26T12:17:11.947Z,5.82
2022-09-26T12:20:01.443Z,5.93
2022-09-26T12:22:36.393Z,5.79
2022-09-26T12:25:07.663Z,5.70
2022-09-26T12:27:49.979Z,5.61
2022-09-26T12:30:26.580Z,5.70
2022-09-26T12:33:32.008Z,5.77
2022-09-26T12:36:24.312Z,5.70
2022-09-26T12:39:13.178Z,5.58
2022-09-26T12:42:13.271Z,5.69
2022-09-26T12:45:17.443Z,5.63
2022-09-26T12:47:52.638Z,5.57
2022-09-26T12:50:25.190Z,5.37
2022-09-26T12:52:55.527Z,5.59
2022-09-26T12:55:38.630Z,5.56
2022-09-26T12:58:22.173Z,5.63
2022-09-26T13:01:02.572Z,5.69
2022-09-26T13:03:45.829Z,5.59
2022-09-26T13:06:38.654Z,5.47
2022-09-26T13:09:23.912Z,5.41
2022-09-26T13:12:00.588Z,5.30
2022-09-26T13:14:43.140Z,5.25
2022-09-26T13:17:15.801Z,5.23
2022-09-26T13:20:01.784Z,5.36
2022-09-26T13:22:38.219Z,5.26
2022-09-26T13:25:13.007Z,5.34
2022-09-26T13:28:29.888Z,5.48
2022-09-26T13:31:03.378Z,5.47
2022-09-26T13:33:40.135Z,5.48
2022-09-26T13:36:10.264Z,5.51
2022-09-26T13:38:59.807Z,5.62
2022-09-26T13:41:55.297Z,5.59
2022-09-26T13:44:47.889Z,5.59
2022-09-26T13:47:37.196Z,5.73
2022-09-26T13:50:14.683Z,5.73
2022-09-26T13:52:52.723Z,5.76
2022-09-26T13:55:22.409Z,5.78
2022-09-26T13:58:04.385Z,5.79
2022-09-26T14:00:31.837Z,5.85
2022-09-26T14:03:19.684Z,5.99
2022-09-26T14:05:52.354Z,5.92
2022-09-26T14:08:44.481Z,6.04
2022-09-26T14:11:19.983Z,6.04
2022-09-26T14:13:48.988Z,6.00
2022-09-26T14:16:29.131Z,6.13
2022-09-26T14:19:24.809Z,6.12
2022-09-26T14:22:05.661Z,6.20
2022-09-26T14:24:37.531Z,6.15
2022-09-26T14:27:13.877Z,6.29
2022-09-26T14:29:47.328Z,6.21
2022-09-26T14:32:23.585Z,6.22
2022-09-26T14:34:57.378Z,6.31
2022-09-26T14:37:24.777Z,6.48
2022-09-26T14:40:12.642Z,6.44
2022-09-26T14:42:43.036Z,6.34
2022-09-26T14:45:19.432Z,6.44
2022-09-26T14:47:49.769Z,6.39
2022-09-26T14:50:49.815Z,6.48
2022-09-26T14:53:34.355Z,6.38
2022-09-26T14:56:06.687Z,6.28
2022-09-26T14:58:48.737Z,6.37
2022-09-26T15:01:31.165Z,6.30
2022-09-26T15:04:03.377Z,6.18
2022-09-26T15:06:36.451Z,6.22
2022-09-26T15:09:13.255Z,6.31
2022-09-26T15:11:54.850Z,6.21
2022-09-26T15:14:49.033Z,6.25
2022-09-26T15:17:27.999Z,6.17
2022-09-26T15:19:59.211Z,6.18
2022-09-26T15:22:31.245Z,6.09
2022-09-26T15:25:23.465Z,6.24
2022-09-26T15:27:55.242Z,6.00
2022-09-26T15:30:38.035Z,6.15
2022-09-26T15:33:06.316Z,6.06
2022-09-26T15:35:34.440Z,5.94
2022-09-26T15:38:04.527Z,6.00
2022-09-26T15:40:32.524Z,5.87
2022-09-26T15:43:22.995Z,5.90
2022-09-26T15:46:03.581Z,5.91
2022-09-26T15:48:35.035Z,5.80
2022-09-26T15:51:12.948Z,5.82
2022-09-26T15:53:45.758Z,5.81
2022-09-26T15:56:25.361Z,5.90
2022-09-26T15:59:03.620Z,5.93
2022-09-26T16:01:32.275Z,5.82
2022-09-26T16:04:16.244Z,5.88
2022-09-26T16:07:03.549Z,5.96
2022-09-26T16:09:41.044Z,5.95
2022-09-26T16:12:17.631Z,5.84
2022-09-26T16:14:51.147Z,6.03
2022-09-26T16:17:27.971Z,5.99
2022-09-26T16:20:02.733Z,6.05
2022-09-26T16:22:45.841Z,6.00
2022-09-26T16:25:19.490Z,6.08
2022-09-26T16:27:49.709Z,6.11
2022-09-26T16:30:42.024Z,6.26
2022-09-26T16:33:09.475Z,6.15
2022-09-26T16:35:43.775Z,6.13
2022-09-26T16:38:34.623Z,6.26
2022-09-26T16:42:01.351Z,6.30
2022-09-26T16:44:28.863Z,6.23
2022-09-26T16:47:02.129Z,6.07
2022-09-26T16:49:31.392Z,6.23
2022-09-26T16:52:34.795Z,6.32
2022-09-26T16:55:06.362Z,6.23
2022-09-26T16:57:49.380Z,6.24
2022-09-26T17:00:39.068Z,6.27
2022-09-26T17:03:31.073Z,6.33
2022-09-26T17:06:00.252Z,6.18
2022-09-26T17:08:29.066Z,6.13
2022-09-26T17:11:01.516Z,6.25
2022-09-26T17:13:33.372Z,6.18
2022-09-26T17:16:03.689Z,6.14
2022-09-26T17:18:33.545Z,6.07
2022-09-26T17:21:01.805Z,6.08
2022-09-26T17:23:40.920Z,5.96
2022-09-26T17:26:20.073Z,6.15
2022-09-26T17:28:48.282Z,6.11
2022-09-26T17:31:21.600Z,6.18
2022-09-26T17:33:52.758Z,6.23
2022-09-26T17:36:26.450Z,6.17
2022-09-26T17:38:55.000Z,6.12
2022-09-26T17:41:23.510Z,6.09
2022-09-26T17:43:58.845Z,6.11
2022-09-26T17:46:26.606Z,6.12
2022-09-26T17:48:54.934Z,6.16
2022-09-26T17:51:24.246Z,6.13
2022-09-26T17:53:52.891Z,6.12
2022-09-26T17:56:21.115Z,6.05
2022-09-26T17:58:51.589Z,6.04
2022-09-26T18:01:24.836Z,6.06
2022-09-26T18:03:58.803Z,6.13
2022-09-26T18:06:31.761Z,6.10
2022-09-26T18:09:05.595Z,6.08
2022-09-26T18:11:34.745Z,6.23
2022-09-26T18:14:04.894Z,6.03
2022-09-26T18:16:32.392Z,5.95
2022-09-26T18:19:06.793Z,5.88
2022-09-26T18:21:35.701Z,5.89
2022-09-26T18:24:07.154Z,5.86
2022-09-26T18:26:42.335Z,5.74
2022-09-26T18:29:13.781Z,5.73
2022-09-26T18:31:44.794Z,5.74
2022-09-26T18:34:16.452Z,5.62
2022-09-26T18:36:44.133Z,5.55
2022-09-26T18:39:11.724Z,5.59
2022-09-26T18:41:40.082Z,5.55
2022-09-26T18:44:14.775Z,5.58
2022-09-26T18:46:44.878Z,5.58
2022-09-26T18:49:13.915Z,5.55
2022-09-26T18:51:42.479Z,5.48
2022-09-26T18:54:13.825Z,5.38
2022-09-26T18:57:00.215Z,5.30
2022-09-26T18:59:31.280Z,5.29
2022-09-26T19:02:01.625Z,5.37
2022-09-26T19:04:30.908Z,5.36
2022-09-26T19:07:01.336Z,5.39
2022-09-26T19:09:33.536Z,5.35
2022-09-26T19:12:02.320Z,5.36
2022-09-26T19:14:31.673Z,5.37
2022-09-26T19:16:59.625Z,5.31
2022-09-26T19:19:28.891Z,5.29
2022-09-26T19:22:02.330Z,5.24
2022-09-26T19:24:44.054Z,5.23
2022-09-26T19:27:33.723Z,5.30
2022-09-26T19:30:15.845Z,5.34
2022-09-26T19:32:47.081Z,5.25
2022-09-26T19:35:30.527Z,5.38
2022-09-26T19:38:01.282Z,5.44
2022-09-26T19:40:29.215Z,5.25
2022-09-26T19:42:57.496Z,5.21
2022-09-26T19:45:26.594Z,5.21
2022-09-26T19:47:56.118Z,5.17
2022-09-26T19:50:26.008Z,5.23
2022-09-26T19:52:55.720Z,5.13
2022-09-26T19:55:31.698Z,5.21
2022-09-26T19:58:14.000Z,5.21
2022-09-26T20:00:44.857Z,5.08
2022-09-26T20:03:21.479Z,5.08
2022-09-26T20:05:50.290Z,4.93
2022-09-26T20:08:22.161Z,4.89
2022-09-26T20:10:50.519Z,4.77
2022-09-26T20:13:18.970Z,4.63
2022-09-26T20:15:47.231Z,4.56
2022-09-26T20:18:21.578Z,4.61
2022-09-26T20:20:54.219Z,4.54
2022-09-26T20:23:25.342Z,4.42
2022-09-26T20:25:54.666Z,4.34
2022-09-26T20:28:23.057Z,4.33
2022-09-26T20:30:55.653Z,4.28
2022-09-26T20:33:24.511Z,4.10
2022-09-26T20:36:02.913Z,4.21
2022-09-26T20:38:37.483Z,4.06
2022-09-26T20:41:15.436Z,4.12
2022-09-26T20:43:48.057Z,4.07
2022-09-26T20:46:15.983Z,3.91
2022-09-26T20:48:47.445Z,3.98
2022-09-26T20:51:20.885Z,3.96
2022-09-26T20:53:48.323Z,3.80
2022-09-26T20:56:21.498Z,3.69
2022-09-26T20:58:48.985Z,3.72
2022-09-26T21:01:19.587Z,3.74
2022-09-26T21:03:52.595Z,3.81
2022-09-26T21:06:22.735Z,3.66
2022-09-26T21:08:50.250Z,3.60
2022-09-26T21:11:19.827Z,3.58
2022-09-26T21:13:48.195Z,3.52
2022-09-26T21:16:18.439Z,3.43
2022-09-26T21:18:49.920Z,3.40
2022-09-26T21:21:24.473Z,3.39
2022-09-26T21:24:01.498Z,3.39
2022-09-26T21:26:31.527Z,3.39
2022-09-26T21:28:58.989Z,3.30
2022-09-26T21:31:32.343Z,3.37
2022-09-26T21:34:01.159Z,3.42
2022-09-26T21:36:35.810Z,3.45
2022-09-26T21:39:03.873Z,3.45
2022-09-26T21:41:31.435Z,3.61
2022-09-26T21:44:06.668Z,3.56
2022-09-26T21:46:34.393Z,3.56
2022-09-26T21:49:01.993Z,3.58
2022-09-26T21:51:30.360Z,3.56
2022-09-26T21:54:07.478Z,3.63
2022-09-26T21:56:48.994Z,3.57
2022-09-26T21:59:20.001Z,3.50
2022-09-26T22:01:47.704Z,3.44
2022-09-26T22:04:15.265Z,3.41
2022-09-26T22:06:43.025Z,3.46
2022-09-26T22:09:10.572Z,3.50
2022-09-26T22:11:38.431Z,3.52
2022-09-26T22:14:06.371Z,3.42
2022-09-26T22:16:34.016Z,3.45
2022-09-26T22:19:01.972Z,3.42
2022-09-26T22:21:29.588Z,3.37
2022-09-26T22:23:57.240Z,3.38
2022-09-26T22:26:24.801Z,3.35
2022-09-26T22:28:52.338Z,3.37
2022-09-26T22:31:20.142Z,3.42
2022-09-26T22:33:47.746Z,3.51
2022-09-26T22:36:16.819Z,3.49
2022-09-26T22:38:45.144Z,3.54
2022-09-26T22:41:12.582Z,3.60
2022-09-26T22:43:40.092Z,3.59
2022-09-26T22:46:09.991Z,3.60
2022-09-26T22:48:42.695Z,3.66
2022-09-26T22:51:10.591Z,3.67
2022-09-26T22:53:39.504Z,3.61
2022-09-26T22:56:09.528Z,3.64
2022-09-26T22:58:43.315Z,3.57
2022-09-26T23:01:23.278Z,3.64
2022-09-26T23:03:55.026Z,3.60
2022-09-26T23:06:23.843Z,3.49
2022-09-26T23:08:51.838Z,3.49
2022-09-26T23:11:20.390Z,3.53
2022-09-26T23:13:50.223Z,3.46
2022-09-26T23:16:47.867Z,3.54
2022-09-26T23:19:18.206Z,3.46
2022-09-26T23:21:45.654Z,3.51
2022-09-26T23:24:13.251Z,3.42
2022-09-26T23:26:40.783Z,3.37
2022-09-26T23:29:09.533Z,3.39
2022-09-26T23:31:37.043Z,3.41
2022-09-26T23:34:04.853Z,3.45
2022-09-26T23:36:32.430Z,3.42
2022-09-26T23:39:00.221Z,3.41
2022-09-26T23:41:27.739Z,3.35
2022-09-26T23:43:55.243Z,3.43
2022-09-26T23:46:22.914Z,3.47
2022-09-26T23:48:50.455Z,3.45
2022-09-26T23:51:18.064Z,3.43
2022-09-26T23:53:45.585Z,3.35
2022-09-26T23:56:14.458Z,3.36
2022-09-26T23:58:42.379Z,3.37
